Time;durP1;ratioP1;P1;durP2;ratioP2;P2;SDS_P1;SDS_P2;PMS_P1;PMS_P2;Temp;Humidity;BMP_temperature;BMP_pressure;BME280_temperature;BME280_humidity;BME280_pressure;Samples;Min_cycle;Max_cycle;Signal;HPM_P1;HPM_P2
2023/03/29 00:01:46;;;;;;;5.93;3.37;;;;;;;3.56;50.87;101858.75;5056490;28;20873;-76
2023/03/29 00:04:12;;;;;;;7.93;3.75;;;;;;;3.64;50.83;101847.81;5069018;28;20386;-76
2023/03/29 00:06:38;;;;;;;6.90;3.40;;;;;;;3.81;50.68;101860.66;5056287;28;20384;-76
2023/03/29 00:09:08;;;;;;;6.80;3.63;;;;;;;3.81;50.57;101862.44;5056654;28;20388;-76
2023/03/29 00:11:34;;;;;;;5.53;3.13;;;;;;;3.75;50.56;101860.25;5064615;28;20473;-76
2023/03/29 00:13:59;;;;;;;4.70;2.90;;;;;;;3.75;50.38;101861.06;5069478;28;20384;-76
2023/03/29 00:16:25;;;;;;;6.23;3.10;;;;;;;3.68;50.36;101862.41;5068273;28;20399;-77
2023/03/29 00:18:50;;;;;;;6.13;2.95;;;;;;;3.53;50.55;101868.59;5052967;28;20381;-76
2023/03/29 00:21:16;;;;;;;3.72;2.90;;;;;;;3.39;50.86;101865.06;5053044;28;20447;-76
2023/03/29 00:23:43;;;;;;;6.40;2.83;;;;;;;3.24;50.94;101859.00;5052871;28;20872;-76
2023/03/29 00:26:08;;;;;;;6.13;3.28;;;;;;;3.31;51.33;101862.06;5068622;28;20469;-77
2023/03/29 00:28:34;;;;;;;6.17;2.93;;;;;;;3.22;51.07;101860.88;5068307;28;20481;-77
2023/03/29 00:31:11;;;;;;;4.80;2.83;;;;;;;3.22;51.22;101860.00;5067048;28;20374;-77
2023/03/29 00:33:38;;;;;;;5.27;3.10;;;;;;;3.16;51.39;101857.75;5052210;28;20384;-77
2023/03/29 00:36:04;;;;;;;4.67;2.70;;;;;;;3.18;51.35;101869.00;5067650;28;20948;-77
2023/03/29 00:38:30;;;;;;;4.97;2.70;;;;;;;3.23;51.14;101866.94;5072106;28;20378;-77
2023/03/29 00:40:56;;;;;;;5.75;3.10;;;;;;;3.19;51.59;101865.44;5065558;28;20405;-76
2023/03/29 00:43:22;;;;;;;6.50;2.55;;;;;;;3.24;51.16;101856.38;5058497;28;20859;-77
2023/03/29 00:45:47;;;;;;;5.45;2.80;;;;;;;3.17;51.15;101862.91;5070253;28;20532;-76
2023/03/29 00:48:17;;;;;;;4.80;2.60;;;;;;;3.02;51.58;101853.34;5059398;28;20395;-76
2023/03/29 00:51:06;;;;;;;5.93;2.97;;;;;;;3.10;51.48;101848.50;5057296;28;20428;-76
2023/03/29 00:53:33;;;;;;;7.00;2.97;;;;;;;3.03;51.32;101853.25;5069567;28;20415;-76
2023/03/29 00:56:10;;;;;;;6.00;2.80;;;;;;;3.01;51.47;101860.38;5055694;28;20401;-76
2023/03/29 00:58:48;;;;;;;6.85;3.40;;;;;;;3.09;51.33;101859.91;5064463;28;20402;-76
2023/03/29 01:01:20;;;;;;;3.72;2.83;;;;;;;3.09;51.49;101862.53;5070273;28;20495;-76
2023/03/29 01:03:53;;;;;;;3.80;3.00;;;;;;;3.04;51.45;101856.72;5070654;28;20393;-76
2023/03/29 01:06:22;;;;;;;4.33;2.60;;;;;;;3.02;51.15;101858.59;5066635;28;20450;-77
2023/03/29 01:08:56;;;;;;;6.22;3.00;;;;;;;3.11;51.26;101872.91;5066959;28;20422;-77
2023/03/29 01:11:38;;;;;;;5.47;2.97;;;;;;;3.17;51.59;101878.63;5071711;28;20394;-76
2023/03/29 01:14:07;;;;;;;7.32;2.90;;;;;;;3.19;50.76;101876.75;5060305;28;20396;-76
2023/03/29 01:16:37;;;;;;;7.88;3.30;;;;;;;3.10;51.02;101879.09;5069744;28;20925;-76
2023/03/29 01:19:06;;;;;;;6.03;3.08;;;;;;;3.15;51.03;101877.03;5059089;28;20397;-76
2023/03/29 01:21:45;;;;;;;8.77;3.08;;;;;;;3.17;50.65;101875.16;5053922;28;20396;-76
2023/03/29 01:24:29;;;;;;;6.15;3.00;;;;;;;3.12;50.83;101877.25;5067229;28;20450;-76
2023/03/29 01:26:57;;;;;;;4.20;3.10;;;;;;;3.12;50.82;101878.06;5070192;28;20417;-76
2023/03/29 01:29:42;;;;;;;4.72;3.17;;;;;;;3.30;51.04;101880.50;5051422;28;20389;-76
2023/03/29 01:32:17;;;;;;;4.95;3.00;;;;;;;3.20;50.36;101867.13;5066430;28;20371;-76
2023/03/29 01:35:03;;;;;;;5.15;3.20;;;;;;;3.11;50.70;101879.00;5055629;28;20717;-75
2023/03/29 01:37:57;;;;;;;6.13;3.10;;;;;;;3.12;50.72;101877.25;5069012;28;20875;-77
2023/03/29 01:40:27;;;;;;;11.15;3.67;;;;;;;3.11;50.23;101878.16;5068056;28;20414;-77
2023/03/29 01:43:18;;;;;;;6.73;3.80;;;;;;;3.06;50.16;101874.03;5053399;28;20392;-76
2023/03/29 01:45:54;;;;;;;5.32;3.50;;;;;;;3.22;49.98;101875.72;5062944;28;20387;-76
2023/03/29 01:48:45;;;;;;;4.40;2.93;;;;;;;3.25;49.65;101880.78;5053975;28;20384;-77
2023/03/29 01:51:36;;;;;;;6.25;3.30;;;;;;;3.27;49.71;101883.31;5059292;28;20389;-76
2023/03/29 01:54:19;;;;;;;5.28;3.15;;;;;;;3.50;49.86;101885.38;5052007;28;20511;-76
2023/03/29 01:56:48;;;;;;;6.47;3.38;;;;;;;3.59;49.25;101886.56;5066501;28;20392;-76
2023/03/29 01:59:17;;;;;;;5.25;3.33;;;;;;;3.72;49.68;101877.00;5055207;28;20408;-77
2023/03/29 02:01:53;;;;;;;5.77;3.60;;;;;;;3.98;50.02;101870.09;5051433;28;20479;-76
2023/03/29 02:04:28;;;;;;;6.03;3.90;;;;;;;4.19;49.41;101870.47;5052180;28;20377;-76
2023/03/29 02:06:56;;;;;;;5.55;3.80;;;;;;;3.89;48.83;101877.69;5050970;28;20393;-76
2023/03/29 02:09:22;;;;;;;7.38;4.60;;;;;;;3.94;49.33;101880.88;5059852;28;20383;-76
2023/03/29 02:11:50;;;;;;;8.85;4.35;;;;;;;4.01;49.50;101872.50;5058191;28;20415;-77
2023/03/29 02:14:16;;;;;;;5.82;3.63;;;;;;;3.98;49.02;101872.72;5068227;28;20448;-76
2023/03/29 02:16:41;;;;;;;6.53;4.00;;;;;;;3.77;48.96;101888.03;5054828;28;20885;-77
2023/03/29 02:19:08;;;;;;;6.80;4.17;;;;;;;3.85;48.98;101889.34;5056067;28;20389;-75
2023/03/29 02:21:50;;;;;;;7.05;4.13;;;;;;;4.00;48.98;101880.50;5065515;28;20499;-76
2023/03/29 02:24:18;;;;;;;6.45;3.90;;;;;;;4.02;48.76;101887.31;5063239;28;20413;-76
2023/03/29 02:26:45;;;;;;;6.53;3.93;;;;;;;4.17;48.71;101892.53;5051282;28;20475;-77
2023/03/29 02:29:11;;;;;;;8.05;5.35;;;;;;;4.08;48.80;101895.75;5059398;28;20418;-77
2023/03/29 02:31:56;;;;;;;6.82;4.32;;;;;;;3.96;48.07;101887.72;5066309;28;20381;-75
2023/03/29 02:34:30;;;;;;;7.50;4.53;;;;;;;4.00;47.98;101899.69;5071564;28;20432;-76
2023/03/29 02:36:59;;;;;;;7.53;4.32;;;;;;;3.99;47.74;101908.50;5060698;28;20383;-76
2023/03/29 02:39:32;;;;;;;5.43;3.90;;;;;;;3.91;47.38;101915.19;5070091;28;20432;-77
2023/03/29 02:41:59;;;;;;;7.30;4.25;;;;;;;3.76;47.92;101909.97;5055625;28;20388;-76
2023/03/29 02:44:28;;;;;;;6.75;3.95;;;;;;;3.69;47.97;101910.44;5066222;28;20392;-77
2023/03/29 02:47:07;;;;;;;5.03;3.67;;;;;;;3.61;48.02;101906.50;5072325;28;20398;-76
2023/03/29 02:49:33;;;;;;;5.43;3.50;;;;;;;3.59;47.91;101897.91;5065740;28;20807;-76
2023/03/29 02:52:15;;;;;;;10.30;7.80;;;;;;;3.59;47.71;101904.94;5070130;28;20944;-76
2023/03/29 02:54:44;;;;;;;7.85;4.75;;;;;;;3.58;47.72;101905.84;5055112;28;20483;-76
2023/03/29 02:57:11;;;;;;;12.43;11.23;;;;;;;3.57;47.44;101901.56;5062469;28;20483;-76
2023/03/29 02:59:37;;;;;;;8.57;3.33;;;;;;;3.64;47.24;101910.72;5062411;28;20407;-76
2023/03/29 03:02:04;;;;;;;6.63;3.60;;;;;;;3.69;47.19;101911.28;5055911;28;20410;-76
2023/03/29 03:04:30;;;;;;;8.65;4.10;;;;;;;3.78;46.44;101915.09;5072097;28;20413;-76
2023/03/29 03:06:56;;;;;;;7.40;4.40;;;;;;;3.78;46.31;101912.47;5079534;28;20389;-76
2023/03/29 03:09:22;;;;;;;15.43;13.63;;;;;;;3.80;46.30;101915.88;5086753;28;20376;-76
2023/03/29 03:11:47;;;;;;;4.37;2.70;;;;;;;3.83;46.46;101916.53;5078359;28;20389;-76
2023/03/29 03:14:13;;;;;;;5.13;3.00;;;;;;;3.81;46.14;101928.03;5087415;28;20375;-77
2023/03/29 03:16:38;;;;;;;7.60;4.70;;;;;;;3.74;45.87;101913.59;5063388;28;20927;-76
2023/03/29 03:19:04;;;;;;;6.80;3.63;;;;;;;3.64;46.31;101915.97;5074248;28;20391;-76
2023/03/29 03:21:30;;;;;;;7.57;4.45;;;;;;;3.46;47.02;101912.72;5064714;28;20389;-76
2023/03/29 03:23:55;;;;;;;9.13;5.20;;;;;;;3.55;46.79;101921.78;5056158;28;20752;-77
2023/03/29 03:26:23;;;;;;;7.10;4.37;;;;;;;3.59;46.60;101928.53;5067576;28;20390;-76
2023/03/29 03:28:49;;;;;;;13.50;6.13;;;;;;;3.42;46.66;101922.53;5064009;28;20423;-76
2023/03/29 03:31:16;;;;;;;10.88;6.65;;;;;;;3.43;47.08;101926.00;5065362;28;20395;-78
2023/03/29 03:33:42;;;;;;;14.90;6.80;;;;;;;3.51;46.91;101915.91;5061596;28;20419;-76
2023/03/29 03:36:09;;;;;;;7.20;4.15;;;;;;;3.28;46.54;101911.19;5063961;28;20810;-76
2023/03/29 03:38:36;;;;;;;10.65;5.60;;;;;;;3.19;46.79;101918.69;5063351;28;20418;-77
2023/03/29 03:41:03;;;;;;;9.25;4.03;;;;;;;2.93;47.02;101924.63;5064106;28;20875;-75
2023/03/29 03:43:28;;;;;;;4.68;2.67;;;;;;;2.79;46.96;101914.94;5063996;28;20381;-77
2023/03/29 03:45:55;;;;;;;10.10;5.03;;;;;;;2.94;46.78;101918.47;5063679;28;20476;-76
2023/03/29 03:48:21;;;;;;;18.17;7.68;;;;;;;2.98;46.84;101918.19;5063910;28;20861;-76
2023/03/29 03:50:52;;;;;;;18.73;8.70;;;;;;;2.91;47.05;101913.41;5063628;28;20958;-77
2023/03/29 03:53:18;;;;;;;17.88;9.10;;;;;;;3.03;46.80;101908.28;5061591;28;20407;-75
2023/03/29 03:55:48;;;;;;;10.98;5.88;;;;;;;3.20;47.22;101914.28;5059064;28;20405;-76
2023/03/29 03:58:14;;;;;;;7.22;3.78;;;;;;;3.20;47.02;101911.66;5057560;28;20392;-75
2023/03/29 04:00:40;;;;;;;8.43;4.13;;;;;;;3.17;47.08;101917.94;5060334;28;20401;-76
2023/03/29 04:03:06;;;;;;;5.95;3.17;;;;;;;3.12;47.04;101911.28;5061291;28;20384;-76
2023/03/29 04:05:31;;;;;;;5.93;3.23;;;;;;;3.16;47.19;101911.00;5066990;28;20383;-76
2023/03/29 04:07:57;;;;;;;8.93;4.07;;;;;;;3.23;46.95;101919.34;5065298;28;20404;-76
2023/03/29 04:10:22;;;;;;;12.10;7.03;;;;;;;3.20;47.00;101924.75;5056584;28;21379;-76
2023/03/29 04:12:48;;;;;;;9.27;4.30;;;;;;;3.32;47.31;101936.28;5073277;28;21114;-77
2023/03/29 04:15:13;;;;;;;7.93;3.63;;;;;;;3.24;47.13;101936.72;5074321;28;20378;-77
2023/03/29 04:17:39;;;;;;;6.53;3.60;;;;;;;3.27;47.06;101936.56;5057504;28;20849;-77
2023/03/29 04:20:11;;;;;;;6.63;4.57;;;;;;;3.23;47.26;101937.69;5053948;28;20409;-77
2023/03/29 04:22:37;;;;;;;5.82;4.10;;;;;;;3.23;47.28;101951.63;5066956;28;20867;-76
2023/03/29 04:25:05;;;;;;;6.80;3.97;;;;;;;3.21;47.09;101952.66;5058143;28;20389;-77
2023/03/29 04:27:31;;;;;;;9.07;4.10;;;;;;;3.07;47.43;101956.09;5070000;28;20387;-76
2023/03/29 04:29:56;;;;;;;5.15;2.80;;;;;;;3.10;47.37;101949.81;5067641;28;20371;-77
2023/03/29 04:32:22;;;;;;;5.77;3.43;;;;;;;3.15;47.65;101953.88;5064993;28;20397;-77
2023/03/29 04:34:47;;;;;;;8.75;3.60;;;;;;;3.05;47.48;101947.47;5071299;28;20867;-76
2023/03/29 04:37:12;;;;;;;9.20;4.47;;;;;;;3.13;47.50;101955.72;5058448;28;20876;-77
2023/03/29 04:39:38;;;;;;;8.33;3.77;;;;;;;3.04;47.72;101948.41;5060023;28;20400;-77
2023/03/29 04:42:04;;;;;;;9.10;3.53;;;;;;;3.16;47.90;101946.84;5057253;28;20515;-77
2023/03/29 04:44:32;;;;;;;7.97;3.60;;;;;;;3.17;47.51;101964.25;5053793;28;20377;-76
2023/03/29 04:46:59;;;;;;;9.27;3.70;;;;;;;3.16;47.54;101955.53;5044391;28;20407;-77
2023/03/29 04:49:25;;;;;;;11.35;4.25;;;;;;;3.19;47.68;101947.50;5037319;28;20501;-77
2023/03/29 04:51:50;;;;;;;12.10;5.18;;;;;;;3.15;47.93;101951.25;5042848;28;20492;-77
2023/03/29 04:54:16;;;;;;;10.52;5.78;;;;;;;3.14;47.72;101960.03;5041472;28;20455;-78
2023/03/29 04:56:42;;;;;;;16.85;6.38;;;;;;;3.22;47.61;101967.44;5036793;28;20394;-77
2023/03/29 04:59:08;;;;;;;14.70;6.73;;;;;;;3.29;47.63;101970.53;5051134;28;20446;-77
2023/03/29 05:01:34;;;;;;;12.43;5.82;;;;;;;3.30;47.82;101967.00;5051496;28;20391;-80
2023/03/29 05:03:59;;;;;;;12.33;6.50;;;;;;;3.29;47.66;101965.28;5052745;28;20376;-77
2023/03/29 05:06:25;;;;;;;9.07;4.30;;;;;;;3.20;47.81;101977.16;5040503;28;20414;-77
2023/03/29 05:08:51;;;;;;;14.80;4.47;;;;;;;3.12;48.15;101968.94;5047289;28;20731;-76
2023/03/29 05:11:18;;;;;;;12.27;4.50;;;;;;;3.23;47.99;101969.13;5032553;28;21056;-76
2023/03/29 05:13:44;;;;;;;8.75;3.85;;;;;;;3.22;48.22;101970.06;5032264;28;20410;-77
2023/03/29 05:16:09;;;;;;;6.72;3.60;;;;;;;3.39;48.00;101979.56;5030794;28;20474;-78
2023/03/29 05:18:35;;;;;;;7.90;3.95;;;;;;;3.34;48.09;101978.97;5031552;28;20385;-79
2023/03/29 05:21:01;;;;;;;7.37;3.63;;;;;;;3.45;48.20;101976.53;5031032;28;20719;-80
2023/03/29 05:23:27;;;;;;;10.53;4.03;;;;;;;3.60;48.30;101972.16;5030324;28;20770;-80
2023/03/29 05:25:53;;;;;;;7.72;3.40;;;;;;;3.51;47.30;101984.06;5044840;28;20401;-79
2023/03/29 05:28:19;;;;;;;8.50;3.38;;;;;;;3.29;47.71;101992.34;5043549;28;20371;-79
2023/03/29 05:30:45;;;;;;;7.80;4.00;;;;;;;3.57;48.00;101995.94;5032055;28;20466;-78
2023/03/29 05:33:11;;;;;;;10.88;4.20;;;;;;;3.46;47.50;101986.09;5032066;28;20378;-78
2023/03/29 05:35:36;;;;;;;18.77;9.60;;;;;;;3.40;47.86;101989.94;5045431;28;20387;-78
2023/03/29 05:38:03;;;;;;;8.50;4.43;;;;;;;3.31;47.99;101994.88;5032254;28;20385;-78
2023/03/29 05:40:30;;;;;;;10.82;5.00;;;;;;;3.42;47.94;102000.31;5031944;28;20417;-78
2023/03/29 05:42:56;;;;;;;14.02;5.72;;;;;;;3.59;47.70;102005.41;5032681;28;20447;-78
2023/03/29 05:45:23;;;;;;;11.10;5.37;;;;;;;3.94;47.70;102005.03;5044110;28;20776;-79
2023/03/29 05:47:49;;;;;;;8.38;4.78;;;;;;;3.90;47.87;102003.53;5033267;28;20472;-80
2023/03/29 05:50:15;;;;;;;10.73;4.37;;;;;;;3.87;47.55;102013.34;5034064;28;20885;-79
2023/03/29 05:52:41;;;;;;;11.23;4.20;;;;;;;3.88;47.15;102013.28;5033394;28;20406;-80
2023/03/29 05:55:08;;;;;;;10.57;4.90;;;;;;;3.96;47.59;102018.03;5039005;28;20816;-80
2023/03/29 05:57:37;;;;;;;11.63;5.30;;;;;;;3.91;47.97;102031.44;5042035;28;20381;-80
2023/03/29 06:00:14;;;;;;;16.95;6.60;;;;;;;4.17;47.46;102023.75;5066932;28;20411;-80
2023/03/29 06:02:40;;;;;;;16.58;5.78;;;;;;;4.30;46.80;102021.19;5073403;28;20444;-79
2023/03/29 06:05:06;;;;;;;18.87;5.70;;;;;;;4.30;46.41;102018.56;5069775;28;20426;-80
2023/03/29 06:07:32;;;;;;;16.53;6.10;;;;;;;4.56;46.23;102033.50;5072397;28;20410;-80
2023/03/29 06:09:57;;;;;;;17.10;6.00;;;;;;;4.60;46.32;102023.66;5072334;28;20810;-80
2023/03/29 06:12:23;;;;;;;12.02;4.72;;;;;;;4.53;46.29;102031.06;5075335;28;20387;-80
2023/03/29 06:14:49;;;;;;;12.10;5.13;;;;;;;4.56;46.31;102028.25;5082085;28;20383;-80
2023/03/29 06:17:15;;;;;;;11.20;5.10;;;;;;;4.54;45.67;102029.31;5063749;28;20427;-79
2023/03/29 06:19:41;;;;;;;9.48;3.63;;;;;;;4.69;45.12;102038.81;5048312;28;20399;-80
2023/03/29 06:22:06;;;;;;;13.52;5.07;;;;;;;4.89;44.93;102040.13;5074983;28;20386;-83
2023/03/29 06:24:31;;;;;;;9.63;4.03;;;;;;;4.82;44.64;102040.63;5063853;28;20395;-82
2023/03/29 06:26:57;;;;;;;9.37;3.63;;;;;;;5.04;44.97;102043.56;5044550;28;20387;-82
2023/03/29 06:29:23;;;;;;;8.75;3.05;;;;;;;4.82;44.46;102051.16;5065002;28;20379;-81
2023/03/29 06:31:48;;;;;;;5.93;2.45;;;;;;;4.60;44.38;102047.28;5056474;28;20390;-80
2023/03/29 06:34:15;;;;;;;6.55;1.98;;;;;;;4.36;43.61;102061.03;5075139;28;20667;-81
2023/03/29 06:36:41;;;;;;;4.83;1.83;;;;;;;4.35;43.83;102048.00;5068766;28;20377;-81
2023/03/29 06:39:06;;;;;;;6.25;2.40;;;;;;;4.65;43.32;102047.00;5071861;28;20473;-81
2023/03/29 06:41:32;;;;;;;7.35;2.22;;;;;;;4.58;43.30;102055.25;5076683;28;20451;-81
2023/03/29 06:43:57;;;;;;;7.77;2.93;;;;;;;4.46;42.77;102045.53;5074603;28;20379;-81
2023/03/29 06:46:23;;;;;;;4.43;1.93;;;;;;;4.43;42.92;102037.88;5054788;28;20871;-80
2023/03/29 06:48:48;;;;;;;5.03;1.77;;;;;;;4.47;43.16;102044.59;5067114;28;20381;-81
2023/03/29 06:51:14;;;;;;;4.90;2.28;;;;;;;4.83;43.05;102047.59;5045469;28;20375;-81
2023/03/29 06:53:39;;;;;;;5.00;2.37;;;;;;;4.73;42.79;102032.41;5065834;28;20693;-80
2023/03/29 06:56:07;;;;;;;5.70;1.90;;;;;;;4.58;43.71;102044.75;5061065;28;20475;-82
2023/03/29 06:58:34;;;;;;;6.20;2.15;;;;;;;4.51;42.73;102043.44;5060131;28;20858;-83
2023/03/29 07:01:03;;;;;;;3.00;1.77;;;;;;;4.54;43.59;102042.44;5074554;28;20401;-83
2023/03/29 07:03:28;;;;;;;6.22;2.60;;;;;;;4.85;42.57;102049.16;5073517;28;20379;-82
2023/03/29 07:06:02;;;;;;;3.03;1.57;;;;;;;4.86;41.79;102031.63;5048003;28;20759;-78
2023/03/29 07:08:30;;;;;;;5.43;2.30;;;;;;;4.81;40.41;102046.81;5033734;28;20382;-81
2023/03/29 07:10:58;;;;;;;3.67;1.60;;;;;;;4.62;41.22;102045.41;5034019;28;20717;-81
2023/03/29 07:13:25;;;;;;;6.53;1.90;;;;;;;4.63;41.77;102041.84;5033062;28;20397;-79
2023/03/29 07:15:51;;;;;;;5.45;2.10;;;;;;;4.96;42.00;102033.53;5045022;28;20448;-80
2023/03/29 07:18:17;;;;;;;4.00;1.65;;;;;;;5.01;40.48;102048.19;5057246;28;20419;-78
2023/03/29 07:20:42;;;;;;;3.65;1.73;;;;;;;4.75;40.36;102053.31;5056096;28;20404;-78
2023/03/29 07:23:08;;;;;;;5.90;2.27;;;;;;;4.96;41.36;102046.69;5055814;28;20384;-78
2023/03/29 07:25:34;;;;;;;4.10;1.92;;;;;;;5.10;40.17;102052.81;5051755;28;20382;-79
2023/03/29 07:28:00;;;;;;;2.13;1.52;;;;;;;5.28;40.58;102051.59;5036244;28;20853;-81
2023/03/29 07:30:28;;;;;;;5.10;2.10;;;;;;;5.32;38.97;102060.97;5033637;28;20379;-78
2023/03/29 07:32:54;;;;;;;3.05;1.80;;;;;;;4.71;40.22;102057.94;5035432;28;20374;-79
2023/03/29 07:35:22;;;;;;;3.75;1.90;;;;;;;4.82;39.65;102067.75;5036498;28;20390;-78
2023/03/29 07:37:47;;;;;;;3.40;1.60;;;;;;;4.69;39.88;102062.44;5036505;28;20378;-78
2023/03/29 07:40:22;;;;;;;4.67;1.90;;;;;;;5.19;39.60;102086.38;5035212;28;20493;-78
2023/03/29 07:42:53;;;;;;;3.63;1.67;;;;;;;5.16;39.62;102063.75;5035702;28;20477;-79
2023/03/29 07:45:20;;;;;;;3.03;1.58;;;;;;;5.26;39.39;102050.88;5035220;28;20378;-77
2023/03/29 07:47:47;;;;;;;2.92;2.00;;;;;;;5.51;39.13;102044.78;5038231;28;20394;-78
2023/03/29 07:50:13;;;;;;;3.30;1.75;;;;;;;5.48;38.25;102045.00;5036604;28;20766;-78
2023/03/29 07:52:39;;;;;;;4.60;1.80;;;;;;;5.37;39.08;102055.41;5040607;28;20979;-78
2023/03/29 07:55:06;;;;;;;4.93;2.20;;;;;;;5.59;39.13;102061.84;5054634;28;20732;-78
2023/03/29 07:57:32;;;;;;;3.88;2.20;;;;;;;5.67;37.97;102057.75;5054489;28;20449;-78
2023/03/29 07:59:58;;;;;;;5.40;2.33;;;;;;;5.92;38.46;102062.16;5052969;28;20500;-77
2023/03/29 08:02:23;;;;;;;3.63;1.90;;;;;;;5.80;36.85;102055.13;5052382;28;20491;-76
2023/03/29 08:04:49;;;;;;;5.30;1.83;;;;;;;5.79;36.37;102058.69;5051798;28;20387;-77
2023/03/29 08:07:19;;;;;;;5.10;2.93;;;;;;;5.84;36.90;102075.00;5071488;28;20375;-77
2023/03/29 08:09:45;;;;;;;3.78;2.50;;;;;;;6.02;36.87;102067.66;5062982;28;20384;-78
2023/03/29 08:12:11;;;;;;;2.50;1.63;;;;;;;5.74;36.31;102059.03;5072006;28;20383;-78
2023/03/29 08:14:37;;;;;;;5.13;2.80;;;;;;;5.87;36.93;102050.25;5075565;28;20756;-79
2023/03/29 08:17:03;;;;;;;3.10;1.70;;;;;;;5.69;35.57;102055.00;5074209;28;20855;-77
2023/03/29 08:19:28;;;;;;;3.38;1.83;;;;;;;5.75;35.70;102057.22;5074321;28;20409;-78
2023/03/29 08:21:54;;;;;;;5.13;1.60;;;;;;;5.92;35.56;102056.91;5073857;28;20387;-78
2023/03/29 08:24:20;;;;;;;3.47;1.83;;;;;;;6.11;34.74;102058.28;5073550;28;20375;-77
2023/03/29 08:26:45;;;;;;;6.97;2.38;;;;;;;5.94;35.06;102077.81;5073237;28;20379;-79
2023/03/29 08:29:11;;;;;;;4.72;2.65;;;;;;;5.92;35.00;102069.19;5072580;28;20383;-81
2023/03/29 08:31:36;;;;;;;4.70;2.63;;;;;;;6.14;35.65;102052.81;5074748;28;20451;-78
2023/03/29 08:34:02;;;;;;;3.43;2.07;;;;;;;6.17;34.55;102059.63;5074358;28;20370;-78
2023/03/29 08:36:28;;;;;;;4.15;2.17;;;;;;;6.18;34.11;102064.81;5073285;28;20417;-78
2023/03/29 08:38:55;;;;;;;5.87;2.83;;;;;;;6.23;35.31;102056.56;5073773;28;20379;-78
2023/03/29 08:41:35;;;;;;;4.70;2.53;;;;;;;6.90;34.88;102066.69;5072988;28;20403;-78
2023/03/29 08:44:01;;;;;;;6.80;2.67;;;;;;;6.79;34.47;102053.44;5073621;28;20386;-78
2023/03/29 08:46:32;;;;;;;5.37;2.07;;;;;;;6.40;33.29;102068.53;5073495;28;20375;-77
2023/03/29 08:49:01;;;;;;;3.78;2.10;;;;;;;6.53;33.47;102073.78;5074015;28;20444;-78
2023/03/29 08:51:31;;;;;;;2.75;1.42;;;;;;;6.28;32.41;102068.47;5074194;28;20379;-77
2023/03/29 08:54:37;;;;;;;3.47;1.70;;;;;;;6.34;33.12;102061.06;5073751;28;21042;-76
2023/03/29 08:57:23;;;;;;;3.20;1.70;;;;;;;6.50;32.91;102053.78;5066966;28;20887;-76
2023/03/29 08:59:51;;;;;;;6.07;2.00;;;;;;;6.43;31.40;102065.69;5073054;28;20964;-77
2023/03/29 09:02:22;;;;;;;4.57;1.98;;;;;;;6.60;31.32;102061.84;5072950;28;20379;-78
2023/03/29 09:04:51;;;;;;;5.43;1.88;;;;;;;6.54;32.32;102071.03;5072414;28;20383;-77
2023/03/29 09:07:17;;;;;;;3.00;1.83;;;;;;;6.41;32.69;102054.41;5071965;28;20468;-80
2023/03/29 09:09:42;;;;;;;3.90;1.77;;;;;;;6.46;31.64;102079.50;5072895;28;20375;-78
2023/03/29 09:12:32;;;;;;;3.63;1.55;;;;;;;6.40;31.94;102066.75;5072549;28;20416;-76
2023/03/29 09:15:00;;;;;;;6.43;2.03;;;;;;;6.78;31.77;102063.13;5073352;28;20395;-77
2023/03/29 09:17:36;;;;;;;5.60;2.42;;;;;;;6.67;32.08;102074.47;5071842;28;20736;-78
2023/03/29 09:20:14;;;;;;;6.30;2.27;;;;;;;6.50;31.83;102067.78;5072540;28;20391;-77
2023/03/29 09:22:51;;;;;;;3.00;1.40;;;;;;;6.75;31.59;102071.25;5071156;28;20440;-77
2023/03/29 09:25:24;;;;;;;5.72;2.55;;;;;;;7.01;30.70;102068.53;5073882;28;20375;-79
2023/03/29 09:28:09;;;;;;;2.83;1.70;;;;;;;6.72;30.95;102070.63;5072762;28;20406;-77
2023/03/29 09:31:09;;;;;;;4.88;2.38;;;;;;;6.72;30.92;102057.47;5072165;28;20870;-78
2023/03/29 09:33:43;;;;;;;2.60;1.42;;;;;;;6.77;30.38;102060.59;5064006;28;20863;-78
2023/03/29 09:36:46;;;;;;;3.47;1.73;;;;;;;7.00;30.76;102027.28;5072145;28;20386;-79
2023/03/29 09:39:13;;;;;;;5.25;2.40;;;;;;;7.43;31.03;102042.53;5072522;28;20457;-76
2023/03/29 09:41:53;;;;;;;2.97;1.55;;;;;;;7.24;30.44;102035.19;5073147;28;20391;-78
2023/03/29 09:44:23;;;;;;;7.78;2.10;;;;;;;7.49;30.23;102039.44;5073625;28;20378;-78
2023/03/29 09:46:55;;;;;;;4.72;1.88;;;;;;;7.84;29.95;102036.69;5073931;28;20383;-78
2023/03/29 09:49:28;;;;;;;4.03;1.50;;;;;;;7.34;29.86;102040.59;5073297;28;20379;-77
2023/03/29 09:52:00;;;;;;;3.33;1.70;;;;;;;7.81;29.55;102046.66;5072008;28;20531;-78
2023/03/29 09:54:26;;;;;;;4.53;1.80;;;;;;;8.09;29.23;102032.13;5074340;28;20398;-79
2023/03/29 09:56:52;;;;;;;2.88;1.33;;;;;;;7.84;29.14;102027.94;5077703;28;20371;-77
2023/03/29 09:59:17;;;;;;;3.45;1.70;;;;;;;7.58;29.94;102017.63;5072385;28;20436;-77
2023/03/29 10:01:46;;;;;;;3.38;1.45;;;;;;;7.60;27.91;102060.56;5073531;28;20386;-76
2023/03/29 10:04:12;;;;;;;2.95;1.40;;;;;;;7.22;28.35;102018.59;5087378;28;20399;-77
2023/03/29 10:06:50;;;;;;;2.88;1.35;;;;;;;7.15;28.03;102033.19;5093672;28;20385;-77
2023/03/29 10:09:22;;;;;;;3.65;1.52;;;;;;;7.55;28.89;102014.38;5095060;28;20371;-79
2023/03/29 10:11:52;;;;;;;1.98;1.20;;;;;;;7.68;28.39;102030.09;5092653;28;20383;-78
2023/03/29 10:14:21;;;;;;;2.92;1.50;;;;;;;7.36;28.22;102009.66;5075903;28;20407;-78
2023/03/29 10:16:54;;;;;;;3.03;1.80;;;;;;;7.76;28.30;102006.56;5073224;28;20478;-77
2023/03/29 10:19:26;;;;;;;2.70;1.50;;;;;;;7.81;27.78;102007.91;5073434;28;20455;-78
2023/03/29 10:21:53;;;;;;;3.40;1.67;;;;;;;7.61;26.58;101998.88;5073450;28;20474;-77
2023/03/29 10:24:21;;;;;;;4.17;1.90;;;;;;;8.12;26.86;101984.38;5075370;28;20414;-76
2023/03/29 10:26:54;;;;;;;4.47;1.70;;;;;;;8.33;26.95;101991.53;5072512;28;20705;-76
2023/03/29 10:29:21;;;;;;;3.25;1.33;;;;;;;8.19;26.46;101982.06;5073647;28;20395;-79
2023/03/29 10:31:47;;;;;;;1.98;1.23;;;;;;;8.01;26.50;101979.94;5071890;28;20452;-78
2023/03/29 10:34:16;;;;;;;2.22;1.20;;;;;;;8.17;26.71;101987.44;5073165;28;20375;-77
2023/03/29 10:36:50;;;;;;;2.90;1.42;;;;;;;8.31;26.56;101996.91;5073013;28;20402;-78
2023/03/29 10:39:15;;;;;;;3.20;1.67;;;;;;;7.85;26.42;102004.06;5072174;28;20480;-77
2023/03/29 10:41:43;;;;;;;5.23;2.03;;;;;;;8.07;26.51;101981.25;5071017;28;20410;-78
2023/03/29 10:44:26;;;;;;;2.40;1.13;;;;;;;7.62;26.45;101987.38;5075058;28;20385;-77
2023/03/29 10:46:52;;;;;;;5.43;1.97;;;;;;;8.23;26.77;101988.78;5072802;28;20379;-77
2023/03/29 10:49:20;;;;;;;3.80;1.80;;;;;;;8.10;25.40;101972.22;5071561;28;20748;-78
2023/03/29 10:51:50;;;;;;;2.70;1.40;;;;;;;8.35;24.96;101979.84;5075965;28;20370;-78
2023/03/29 10:54:21;;;;;;;4.85;1.48;;;;;;;8.04;25.11;101998.16;5076612;28;20464;-77
2023/03/29 10:57:02;;;;;;;6.40;1.90;;;;;;;7.90;25.29;101977.28;5076077;28;20474;-78
2023/03/29 10:59:39;;;;;;;2.40;1.38;;;;;;;8.02;23.84;101957.84;5076375;28;20378;-78
2023/03/29 11:02:38;;;;;;;4.40;1.75;;;;;;;8.41;25.31;101974.09;5075629;28;20382;-77
2023/03/29 11:05:15;;;;;;;4.22;1.88;;;;;;;8.73;25.33;101956.56;5076112;28;20397;-77
2023/03/29 11:07:49;;;;;;;1.40;1.23;;;;;;;8.06;23.03;101976.09;5074891;28;20851;-77
2023/03/29 11:10:30;;;;;;;3.13;1.35;;;;;;;7.92;24.06;101969.25;5077258;28;20751;-78
2023/03/29 11:13:17;;;;;;;5.78;1.65;;;;;;;8.36;24.42;101951.66;5074934;28;20383;-78
2023/03/29 11:16:20;;;;;;;2.60;1.37;;;;;;;8.78;23.74;101933.22;5075073;28;20428;-79
2023/03/29 11:19:24;;;;;;;4.32;1.63;;;;;;;8.94;24.10;101948.66;5075761;28;20374;-78
2023/03/29 11:22:16;;;;;;;3.03;1.35;;;;;;;8.62;24.39;101957.47;5073939;28;20410;-77
2023/03/29 11:24:45;;;;;;;1.42;1.00;;;;;;;8.27;23.69;101950.59;5076355;28;20375;-77
2023/03/29 11:27:30;;;;;;;1.65;1.08;;;;;;;8.32;24.36;101947.56;5075328;28;20379;-77
2023/03/29 11:30:05;;;;;;;2.75;1.70;;;;;;;8.74;24.44;101908.84;5076116;28;20374;-77
2023/03/29 11:32:45;;;;;;;3.33;1.17;;;;;;;9.06;23.54;101931.75;5075449;28;20868;-76
2023/03/29 11:35:17;;;;;;;2.78;1.33;;;;;;;8.60;24.06;101930.31;5076221;28;20462;-77
2023/03/29 11:37:53;;;;;;;5.22;1.30;;;;;;;8.88;24.26;101928.03;5076129;28;20467;-77
2023/03/29 11:40:34;;;;;;;2.70;1.38;;;;;;;8.93;22.42;101926.69;5074592;28;20391;-77
2023/03/29 11:43:05;;;;;;;2.83;1.10;;;;;;;8.99;22.10;101923.50;5074691;28;20375;-77
2023/03/29 11:45:41;;;;;;;4.32;1.60;;;;;;;9.27;22.14;101915.84;5075701;28;20379;-77